Huvudsida
METAR-TAF:

METAR-TAF

Flygplatser :

Malé, Maldiverna

Malés internationella flygplats

latitud: 04-12N, longitud: 073-32E, höjd: 2 m

Aktuellt väderrapport

Denna rapport gjordes för 1 timme och 6 minuter sedan, klockan 00:00 UTC
Vind 11 kt från väst
Temperatur 29°C
Fuktighet 79%
Tryck 1009 hPa
Sikt 10 km eller mer
Få moln på en höjd av 1800 ft, Högtornande cumulus.

METAR: VRMM 250000Z 28011KT 9999 FEW018TCU 29/25 Q1009 TEMPO FEW018CB

Tid: 06:06 (01:06 UTC)

Väderprognos

Denna rapport gjordes för 2 timmar och 6 minuter sedan, klockan 23:00 UTC
Prognos gäller från 25 kl. 00 UTC till 26 kl. 06 UTC
Vind 10 kt från väst
Sikt 10 km eller mer
Få moln på en höjd av 1800 ft
Temporärt
från 25 kl. 00 UTC till 25 kl. 06 UTC
Sikt: 7000 m
Få moln på en höjd av 1900 ft, Cumulonimbus.
åska, lätt regn

TAF: VRMM 242300Z 2500/2606 27010KT 9999 FEW018 TEMPO 2500/2506 7000 -TSRA FEW019CB

Aktuella väderrapporter och prognoser från 4000 flygplatser (METAR- och TAF-rapporter).

De tillgängliga stationerna syns som gula och röda prickar på kartan.

För musen över prickarna för att se namnen på stationerna.

Klicka sedan för att få väderrapporter och prognoser.

För att ändra kartan: Klicka på de gröna knapparna med ett svart kors på för att zooma in; den gröna knappen med ett streck på för att zooma ut; eller på de gröna pilarna för angränsande kartor.


METAR-TAF: